createdAt,value
2022-12-04T00:01:16.860Z,2.70
2022-12-04T00:03:44.913Z,2.60
2022-12-04T00:06:14.568Z,2.60
2022-12-04T00:08:43.755Z,2.80
2022-12-04T00:11:14.691Z,2.80
2022-12-04T00:13:43.336Z,2.50
2022-12-04T00:16:13.574Z,2.50
2022-12-04T00:18:42.460Z,2.60
2022-12-04T00:21:12.042Z,2.70
2022-12-04T00:23:42.212Z,2.70
2022-12-04T00:26:13.082Z,2.60
2022-12-04T00:28:41.805Z,2.60
2022-12-04T00:31:11.738Z,2.60
2022-12-04T00:33:39.984Z,2.70
2022-12-04T00:36:10.188Z,2.70
2022-12-04T00:38:38.791Z,2.60
2022-12-04T00:41:08.716Z,2.70
2022-12-04T00:43:37.953Z,2.80
2022-12-04T00:46:05.950Z,2.80
2022-12-04T00:48:33.946Z,2.80
2022-12-04T00:51:03.567Z,2.60
2022-12-04T00:53:31.543Z,2.70
2022-12-04T00:55:59.636Z,2.90
2022-12-04T00:58:27.494Z,2.80
2022-12-04T01:01:03.385Z,2.70
2022-12-04T01:03:31.371Z,2.70
2022-12-04T01:05:59.278Z,2.70
2022-12-04T01:08:27.339Z,2.80
2022-12-04T01:10:55.203Z,2.70
2022-12-04T01:13:24.060Z,2.70
2022-12-04T01:15:51.951Z,2.70
2022-12-04T01:18:21.176Z,2.80
2022-12-04T01:20:51.279Z,3.00
2022-12-04T01:23:19.689Z,2.80
2022-12-04T01:25:54.656Z,2.80
2022-12-04T01:28:23.081Z,2.80
2022-12-04T01:31:01.734Z,2.70
2022-12-04T01:33:32.073Z,2.70
2022-12-04T01:36:01.415Z,2.70
2022-12-04T01:38:30.372Z,2.70
2022-12-04T01:40:58.969Z,2.80
2022-12-04T01:43:27.984Z,2.80
2022-12-04T01:45:56.715Z,2.60
2022-12-04T01:48:30.677Z,2.80
2022-12-04T01:51:06.480Z,2.90
2022-12-04T01:53:37.929Z,3.00
2022-12-04T01:56:07.344Z,3.10
2022-12-04T01:58:38.825Z,3.10
2022-12-04T02:01:09.218Z,3.10
2022-12-04T02:03:38.398Z,3.00
2022-12-04T02:06:08.126Z,3.00
2022-12-04T02:08:36.923Z,2.80
2022-12-04T02:11:12.624Z,2.70
2022-12-04T02:13:47.898Z,2.90
2022-12-04T02:16:26.037Z,3.10
2022-12-04T02:19:00.611Z,3.10
2022-12-04T02:21:35.181Z,3.00
2022-12-04T02:24:36.466Z,3.00
2022-12-04T02:27:07.677Z,3.10
2022-12-04T02:29:42.829Z,3.00
2022-12-04T02:32:18.586Z,3.00
2022-12-04T02:34:52.949Z,3.10
2022-12-04T02:37:28.682Z,3.30
2022-12-04T02:40:01.021Z,3.50
2022-12-04T02:42:35.278Z,3.40
2022-12-04T02:45:09.369Z,3.20
2022-12-04T02:47:40.795Z,3.10
2022-12-04T02:50:13.079Z,3.20
2022-12-04T02:52:45.077Z,3.10
2022-12-04T02:55:17.465Z,3.20
2022-12-04T02:57:49.773Z,3.10
2022-12-04T03:00:20.400Z,3.30
2022-12-04T03:02:53.262Z,3.40
2022-12-04T03:05:26.393Z,3.20
2022-12-04T03:07:58.846Z,3.30
2022-12-04T03:10:31.458Z,3.30
2022-12-04T03:13:04.073Z,3.20
2022-12-04T03:15:38.702Z,3.20
2022-12-04T03:18:13.312Z,3.30
2022-12-04T03:20:41.654Z,3.70
2022-12-04T03:23:14.212Z,3.70
2022-12-04T03:25:51.446Z,3.70
2022-12-04T03:28:28.561Z,3.50
2022-12-04T03:31:02.834Z,3.40
2022-12-04T03:33:35.774Z,3.60
2022-12-04T03:36:11.041Z,3.50
2022-12-04T03:38:42.525Z,3.40
2022-12-04T03:41:19.414Z,3.50
2022-12-04T03:43:53.012Z,3.40
2022-12-04T03:46:28.737Z,3.50
2022-12-04T03:49:03.479Z,3.50
2022-12-04T03:51:36.170Z,3.50
2022-12-04T03:54:09.470Z,3.50
2022-12-04T03:56:42.037Z,3.30
2022-12-04T03:59:14.590Z,3.20
2022-12-04T04:01:48.673Z,3.20
2022-12-04T04:04:20.314Z,3.30
2022-12-04T04:06:53.888Z,3.30
2022-12-04T04:09:27.323Z,3.00
2022-12-04T04:12:01.659Z,2.90
2022-12-04T04:14:51.921Z,2.80
2022-12-04T04:17:44.089Z,2.90
2022-12-04T04:20:35.474Z,2.90
2022-12-04T04:23:24.295Z,2.80
2022-12-04T04:25:53.995Z,2.60
2022-12-04T04:28:33.378Z,2.80
2022-12-04T04:31:09.620Z,2.80
2022-12-04T04:33:48.343Z,2.90
2022-12-04T04:36:24.613Z,3.00
2022-12-04T04:39:02.256Z,3.10
2022-12-04T04:41:38.024Z,3.20
2022-12-04T04:44:14.163Z,3.20
2022-12-04T04:46:47.548Z,3.50
2022-12-04T04:49:18.437Z,3.70
2022-12-04T04:51:46.897Z,3.40
2022-12-04T04:54:17.749Z,3.40
2022-12-04T04:56:47.670Z,3.40
2022-12-04T04:59:16.141Z,3.30
2022-12-04T05:01:46.609Z,3.40
2022-12-04T05:04:16.181Z,3.10
2022-12-04T05:06:44.035Z,2.80
2022-12-04T05:09:11.904Z,2.70
2022-12-04T05:11:39.730Z,2.60
2022-12-04T05:14:09.464Z,2.60
2022-12-04T05:16:37.539Z,2.50
2022-12-04T05:19:23.134Z,2.50
2022-12-04T05:21:52.329Z,2.60
2022-12-04T05:24:20.176Z,2.70
2022-12-04T05:26:48.033Z,2.70
2022-12-04T05:29:15.870Z,2.90
2022-12-04T05:31:43.778Z,3.00
2022-12-04T05:34:11.641Z,3.00
2022-12-04T05:36:39.476Z,2.70
2022-12-04T05:39:08.712Z,2.90
2022-12-04T05:41:36.496Z,2.90
2022-12-04T05:44:04.383Z,2.90
2022-12-04T05:46:32.280Z,2.40
2022-12-04T05:49:00.178Z,2.50
2022-12-04T05:51:29.794Z,2.50
2022-12-04T05:53:57.664Z,2.70
2022-12-04T05:56:26.885Z,2.70
2022-12-04T05:58:54.725Z,2.60
2022-12-04T06:01:24.872Z,2.60
2022-12-04T06:03:52.753Z,2.50
2022-12-04T06:06:22.761Z,2.40
2022-12-04T06:08:51.280Z,2.40
2022-12-04T06:11:21.016Z,2.50
2022-12-04T06:13:50.621Z,2.50
2022-12-04T06:16:20.530Z,2.30
2022-12-04T06:18:50.540Z,2.40
2022-12-04T06:21:19.166Z,2.30
2022-12-04T06:23:47.205Z,2.20
2022-12-04T06:26:15.099Z,2.30
2022-12-04T06:28:42.959Z,2.50
2022-12-04T06:31:14.680Z,2.40
2022-12-04T06:33:43.154Z,2.30
2022-12-04T06:36:13.793Z,2.30
2022-12-04T06:38:42.202Z,2.20
2022-12-04T06:41:12.905Z,1.90
2022-12-04T06:43:41.392Z,2.10
2022-12-04T06:46:13.151Z,2.10
2022-12-04T06:48:41.784Z,1.90
2022-12-04T06:51:12.349Z,1.90
2022-12-04T06:53:41.050Z,2.10
2022-12-04T06:56:10.771Z,2.30
2022-12-04T06:58:38.850Z,2.50
2022-12-04T07:01:12.849Z,2.50
2022-12-04T07:03:46.242Z,2.40
2022-12-04T07:06:20.058Z,2.50
2022-12-04T07:08:50.328Z,2.50
2022-12-04T07:11:18.617Z,2.40
2022-12-04T07:13:46.462Z,2.20
2022-12-04T07:16:18.014Z,2.40
2022-12-04T07:18:46.234Z,2.40
2022-12-04T07:21:17.682Z,2.40
2022-12-04T07:23:46.324Z,2.40
2022-12-04T07:26:15.090Z,2.60
2022-12-04T07:28:45.116Z,2.70
2022-12-04T07:31:16.976Z,2.70
2022-12-04T07:33:45.612Z,2.90
2022-12-04T07:36:16.771Z,2.90
2022-12-04T07:38:44.893Z,3.10
2022-12-04T07:41:14.323Z,2.70
2022-12-04T07:43:43.038Z,2.40
2022-12-04T07:46:13.852Z,2.50
2022-12-04T07:48:43.607Z,2.70
2022-12-04T07:51:14.152Z,2.90
2022-12-04T07:53:42.909Z,3.00
2022-12-04T07:56:12.159Z,3.00
2022-12-04T07:58:40.540Z,3.10
2022-12-04T08:01:10.760Z,2.80
2022-12-04T08:03:43.492Z,2.70
2022-12-04T08:06:17.685Z,2.40
2022-12-04T08:08:45.631Z,2.40
2022-12-04T08:11:15.543Z,2.60
2022-12-04T08:13:43.485Z,2.70
2022-12-04T08:16:13.121Z,2.60
2022-12-04T08:18:41.600Z,2.70
2022-12-04T08:21:11.702Z,2.40
2022-12-04T08:23:41.989Z,2.30
2022-12-04T08:26:10.831Z,2.50
2022-12-04T08:28:39.067Z,2.50
2022-12-04T08:31:08.413Z,2.40
2022-12-04T08:33:36.694Z,2.30
2022-12-04T08:36:07.634Z,2.40
2022-12-04T08:38:35.570Z,2.40
2022-12-04T08:41:06.799Z,2.50
2022-12-04T08:43:34.946Z,2.50
2022-12-04T08:46:05.064Z,2.40
2022-12-04T08:48:33.527Z,2.60
2022-12-04T08:51:01.916Z,2.40
2022-12-04T08:53:30.308Z,2.40
2022-12-04T08:55:58.194Z,2.40
2022-12-04T08:58:27.420Z,2.40
2022-12-04T09:00:55.279Z,2.50
2022-12-04T09:03:29.199Z,2.50
2022-12-04T09:06:00.294Z,2.50
2022-12-04T09:08:28.444Z,2.40
2022-12-04T09:10:56.300Z,2.40
2022-12-04T09:13:24.198Z,2.40
2022-12-04T09:15:53.454Z,2.30
2022-12-04T09:18:21.305Z,2.20
2022-12-04T09:20:56.954Z,2.30
2022-12-04T09:23:25.043Z,2.10
2022-12-04T09:25:52.970Z,2.20
2022-12-04T09:28:21.240Z,2.40
2022-12-04T09:30:59.353Z,2.40
2022-12-04T09:33:27.289Z,2.50
2022-12-04T09:35:55.282Z,2.90
2022-12-04T09:38:23.152Z,3.60
2022-12-04T09:40:59.778Z,4.00
2022-12-04T09:43:36.041Z,3.90
2022-12-04T09:46:10.716Z,4.10
2022-12-04T09:48:42.090Z,4.20
2022-12-04T09:51:18.392Z,4.00
2022-12-04T09:53:49.728Z,3.80
2022-12-04T09:56:20.710Z,3.40
2022-12-04T09:58:52.167Z,3.00
2022-12-04T10:01:25.734Z,2.80
2022-12-04T10:03:58.698Z,2.70
2022-12-04T10:06:37.562Z,2.80
2022-12-04T10:09:12.639Z,3.30
2022-12-04T10:11:50.098Z,3.80
2022-12-04T10:14:31.670Z,4.20
2022-12-04T10:17:32.459Z,4.30
2022-12-04T10:20:12.678Z,4.30
2022-12-04T10:22:51.646Z,4.00
2022-12-04T10:25:23.424Z,3.80
2022-12-04T10:27:56.863Z,3.80
2022-12-04T10:30:27.490Z,3.60
2022-12-04T10:33:00.701Z,3.50
2022-12-04T10:35:30.486Z,3.40
2022-12-04T10:38:00.945Z,3.40
2022-12-04T10:40:34.093Z,3.30
2022-12-04T10:43:07.054Z,3.40
2022-12-04T10:45:35.133Z,3.20
2022-12-04T10:48:07.941Z,3.00
2022-12-04T10:50:35.958Z,3.00
2022-12-04T10:53:03.823Z,3.20
2022-12-04T10:55:33.963Z,3.30
2022-12-04T10:58:02.677Z,3.20
2022-12-04T11:00:32.925Z,3.00
2022-12-04T11:03:05.108Z,3.00
2022-12-04T11:05:34.633Z,2.80
2022-12-04T11:08:05.793Z,3.00
2022-12-04T11:10:36.945Z,3.00
2022-12-04T11:13:07.097Z,3.00
2022-12-04T11:15:37.149Z,3.00
2022-12-04T11:18:11.085Z,3.10
2022-12-04T11:20:42.823Z,3.40
2022-12-04T11:23:17.226Z,3.70
2022-12-04T11:25:48.079Z,3.80
2022-12-04T11:28:40.105Z,3.90
2022-12-04T11:31:10.437Z,3.90
2022-12-04T11:33:44.943Z,3.90
2022-12-04T11:36:22.404Z,3.70
2022-12-04T11:38:51.604Z,3.50
2022-12-04T11:41:27.006Z,3.30
2022-12-04T11:43:59.566Z,3.40
2022-12-04T11:46:31.327Z,3.40
2022-12-04T11:49:02.910Z,3.40
2022-12-04T11:51:43.779Z,3.20
2022-12-04T11:54:26.653Z,3.20
2022-12-04T11:57:07.968Z,3.40
2022-12-04T11:59:55.466Z,3.20
2022-12-04T12:02:40.841Z,3.30
2022-12-04T12:05:44.769Z,3.50
2022-12-04T12:08:21.453Z,3.30
2022-12-04T12:10:56.594Z,3.30
2022-12-04T12:13:33.787Z,3.30
2022-12-04T12:16:10.672Z,3.40
2022-12-04T12:18:55.580Z,3.50
2022-12-04T12:21:27.318Z,3.50
2022-12-04T12:24:08.292Z,3.60
2022-12-04T12:26:46.341Z,3.60
2022-12-04T12:29:27.888Z,3.60
2022-12-04T12:32:09.636Z,3.60
2022-12-04T12:34:40.515Z,3.60
2022-12-04T12:37:17.344Z,3.50
2022-12-04T12:39:51.606Z,3.50
2022-12-04T12:42:26.038Z,3.50
2022-12-04T12:45:00.069Z,3.50
2022-12-04T12:47:33.010Z,3.50
2022-12-04T12:50:04.882Z,3.40
2022-12-04T12:52:39.726Z,3.50
2022-12-04T12:55:18.990Z,3.70
2022-12-04T12:57:50.722Z,3.70
2022-12-04T13:00:21.621Z,3.70
2022-12-04T13:02:55.269Z,3.70
2022-12-04T13:05:27.475Z,3.70
2022-12-04T13:08:06.465Z,3.70
2022-12-04T13:10:41.253Z,3.80
2022-12-04T13:13:14.450Z,3.70
2022-12-04T13:15:48.612Z,3.60
2022-12-04T13:18:24.633Z,3.60
2022-12-04T13:20:55.972Z,3.70
2022-12-04T13:23:50.274Z,3.60
2022-12-04T13:26:29.172Z,3.60
2022-12-04T13:29:02.521Z,3.80
2022-12-04T13:31:39.072Z,4.00
2022-12-04T13:34:30.993Z,4.00
2022-12-04T13:37:29.710Z,4.00
2022-12-04T13:40:37.395Z,4.20
2022-12-04T13:43:26.290Z,4.20
2022-12-04T13:45:56.528Z,4.00
2022-12-04T13:48:33.984Z,4.10
2022-12-04T13:51:07.181Z,4.10
2022-12-04T13:53:39.752Z,4.10
2022-12-04T13:56:24.125Z,4.10
2022-12-04T13:59:01.140Z,3.70
2022-12-04T14:01:36.148Z,3.80
2022-12-04T14:04:04.858Z,3.80
2022-12-04T14:06:37.614Z,3.80
2022-12-04T14:09:08.388Z,3.90
2022-12-04T14:11:46.415Z,3.90
2022-12-04T14:14:27.736Z,3.90
2022-12-04T14:16:57.567Z,4.10
2022-12-04T14:19:32.897Z,4.00
2022-12-04T14:22:01.214Z,4.00
2022-12-04T14:24:36.047Z,4.10
2022-12-04T14:27:33.656Z,4.00
2022-12-04T14:30:03.619Z,3.90
2022-12-04T14:32:34.980Z,3.80
2022-12-04T14:35:03.774Z,3.90
2022-12-04T14:37:36.825Z,3.90
2022-12-04T14:40:07.281Z,4.00
2022-12-04T14:42:39.207Z,4.00
2022-12-04T14:45:30.049Z,3.80
2022-12-04T14:48:12.015Z,3.70
2022-12-04T14:50:44.830Z,3.60
2022-12-04T14:53:24.600Z,3.60
2022-12-04T14:56:04.610Z,3.80
2022-12-04T14:58:39.725Z,3.70
2022-12-04T15:01:23.923Z,3.60
2022-12-04T15:03:57.916Z,3.40
2022-12-04T15:06:28.084Z,3.40
2022-12-04T15:09:19.177Z,3.50
2022-12-04T15:12:06.550Z,3.60
2022-12-04T15:14:43.243Z,3.80
2022-12-04T15:17:11.986Z,4.10
2022-12-04T15:19:39.980Z,4.00
2022-12-04T15:22:15.882Z,3.80
2022-12-04T15:24:43.853Z,3.70
2022-12-04T15:27:13.887Z,3.60
2022-12-04T15:29:48.190Z,3.40
2022-12-04T15:32:18.394Z,3.30
2022-12-04T15:34:49.613Z,3.40
2022-12-04T15:37:21.309Z,3.50
2022-12-04T15:39:52.374Z,3.60
2022-12-04T15:42:27.508Z,3.90
2022-12-04T15:45:01.327Z,3.90
2022-12-04T15:47:31.478Z,3.90
2022-12-04T15:50:10.370Z,4.00
2022-12-04T15:52:39.267Z,3.90
2022-12-04T15:55:10.137Z,3.90
2022-12-04T15:57:40.105Z,4.00
2022-12-04T16:00:24.668Z,3.90
2022-12-04T16:02:52.816Z,3.90
2022-12-04T16:05:35.348Z,3.80
2022-12-04T16:08:22.316Z,4.00
2022-12-04T16:10:58.294Z,4.00
2022-12-04T16:13:31.803Z,3.80
2022-12-04T16:16:01.719Z,3.80
2022-12-04T16:18:30.035Z,3.90
2022-12-04T16:20:58.095Z,3.70
2022-12-04T16:23:27.010Z,3.70
2022-12-04T16:25:54.964Z,3.70
2022-12-04T16:28:22.803Z,3.70
2022-12-04T16:30:52.482Z,3.80
2022-12-04T16:33:21.747Z,3.90
2022-12-04T16:35:50.067Z,4.00
2022-12-04T16:38:18.774Z,3.90
2022-12-04T16:40:48.429Z,4.00
2022-12-04T16:43:18.070Z,3.90
2022-12-04T16:45:48.202Z,4.00
2022-12-04T16:48:16.474Z,4.20
2022-12-04T16:50:46.679Z,4.20
2022-12-04T16:53:17.316Z,4.30
2022-12-04T16:55:46.835Z,4.40
2022-12-04T16:58:15.010Z,4.40
2022-12-04T17:00:44.384Z,4.50
2022-12-04T17:03:19.556Z,4.50
2022-12-04T17:05:48.788Z,4.40
2022-12-04T17:08:17.073Z,4.30
2022-12-04T17:10:44.972Z,4.20
2022-12-04T17:13:13.019Z,4.30
2022-12-04T17:15:40.867Z,4.40
2022-12-04T17:18:12.185Z,4.30
2022-12-04T17:20:44.451Z,4.10
2022-12-04T17:23:13.939Z,4.20
2022-12-04T17:25:41.893Z,4.30
2022-12-04T17:28:10.021Z,4.40
2022-12-04T17:30:37.876Z,4.40
2022-12-04T17:33:06.176Z,4.20
2022-12-04T17:35:34.276Z,4.30
2022-12-04T17:38:05.883Z,4.10
2022-12-04T17:40:35.651Z,4.10
2022-12-04T17:43:03.738Z,4.10
2022-12-04T17:45:31.723Z,4.10
2022-12-04T17:48:01.264Z,4.00
2022-12-04T17:50:29.122Z,4.00
2022-12-04T17:52:56.981Z,4.10
2022-12-04T17:55:24.851Z,4.10
2022-12-04T17:57:54.071Z,4.10
2022-12-04T18:00:22.028Z,4.00
2022-12-04T18:02:53.196Z,4.10
2022-12-04T18:05:21.419Z,4.10
2022-12-04T18:07:49.355Z,4.20
2022-12-04T18:10:17.542Z,4.00
2022-12-04T18:12:45.426Z,4.00
2022-12-04T18:15:14.623Z,4.00
2022-12-04T18:17:42.451Z,4.20
2022-12-04T18:20:11.048Z,4.40
2022-12-04T18:22:39.083Z,4.30
2022-12-04T18:25:08.958Z,4.20
2022-12-04T18:27:41.651Z,4.20
2022-12-04T18:30:10.521Z,4.20
2022-12-04T18:32:39.720Z,4.20
2022-12-04T18:35:08.042Z,4.10
2022-12-04T18:37:35.898Z,4.00
2022-12-04T18:40:06.835Z,4.00
2022-12-04T18:42:35.139Z,4.00
2022-12-04T18:45:02.994Z,3.90
2022-12-04T18:47:30.859Z,4.00
2022-12-04T18:50:00.540Z,4.20
2022-12-04T18:52:28.637Z,4.00
2022-12-04T18:54:56.513Z,3.90
2022-12-04T18:57:24.349Z,3.90
2022-12-04T18:59:52.586Z,3.80
2022-12-04T19:02:20.479Z,3.80
2022-12-04T19:04:48.351Z,3.70
2022-12-04T19:07:18.612Z,3.90
2022-12-04T19:12:34.363Z,3.90
2022-12-04T19:15:02.238Z,3.90
2022-12-04T19:17:30.100Z,3.90
2022-12-04T19:19:58.376Z,3.90
2022-12-04T19:22:27.927Z,3.90
2022-12-04T19:24:55.751Z,3.70
2022-12-04T19:27:23.578Z,3.70
2022-12-04T19:29:51.443Z,3.70
2022-12-04T19:32:19.538Z,3.70
2022-12-04T19:34:49.080Z,3.70
2022-12-04T19:37:16.954Z,3.70
2022-12-04T19:39:46.172Z,3.70
2022-12-04T19:42:14.043Z,3.70
2022-12-04T19:44:49.925Z,3.50
2022-12-04T19:47:18.605Z,3.60
2022-12-04T19:49:46.461Z,3.60
2022-12-04T19:52:14.388Z,3.80
2022-12-04T19:54:42.468Z,3.80
2022-12-04T19:57:11.693Z,4.10
2022-12-04T19:59:45.709Z,4.20
2022-12-04T20:02:15.247Z,4.20
2022-12-04T20:04:43.489Z,4.00
2022-12-04T20:07:11.480Z,3.90
2022-12-04T20:09:39.327Z,3.90
2022-12-04T20:12:07.715Z,3.80
2022-12-04T20:14:36.924Z,3.80
2022-12-04T20:17:05.185Z,3.70
2022-12-04T20:19:33.117Z,3.70
2022-12-04T20:22:00.986Z,3.70
2022-12-04T20:24:28.910Z,3.70
2022-12-04T20:26:56.851Z,3.70
2022-12-04T20:29:24.677Z,3.70
2022-12-04T20:31:53.884Z,3.90
2022-12-04T20:34:21.742Z,3.90
2022-12-04T20:36:50.003Z,3.80
2022-12-04T20:39:19.607Z,3.70
2022-12-04T20:41:47.929Z,3.70
2022-12-04T20:44:18.302Z,3.70
2022-12-04T20:46:46.869Z,4.10
2022-12-04T20:49:21.586Z,4.40
2022-12-04T20:51:51.087Z,4.50
2022-12-04T20:54:21.295Z,4.30
2022-12-04T20:56:49.849Z,4.20
2022-12-04T20:59:19.582Z,4.20
2022-12-04T21:01:48.928Z,4.30
2022-12-04T21:04:19.254Z,4.30
2022-12-04T21:06:47.932Z,4.20
2022-12-04T21:09:17.929Z,4.10
2022-12-04T21:11:47.923Z,3.90
2022-12-04T21:14:35.709Z,4.00
2022-12-04T21:17:06.722Z,4.10
2022-12-04T21:19:36.488Z,4.10
2022-12-04T21:22:04.592Z,4.10
2022-12-04T21:24:37.946Z,4.10
2022-12-04T21:27:05.858Z,3.90
2022-12-04T21:29:34.612Z,3.90
2022-12-04T21:32:02.571Z,3.80
2022-12-04T21:34:30.423Z,3.90
2022-12-04T21:36:59.609Z,3.90
2022-12-04T21:39:27.674Z,3.90
2022-12-04T21:42:13.398Z,3.90
2022-12-04T21:44:41.228Z,4.00
2022-12-04T21:47:09.086Z,3.90
2022-12-04T21:49:36.969Z,4.00
2022-12-04T21:52:06.275Z,4.00
2022-12-04T21:54:34.134Z,3.90
2022-12-04T21:57:02.010Z,3.80
2022-12-04T21:59:30.070Z,3.80
2022-12-04T22:01:57.966Z,3.90
2022-12-04T22:04:26.075Z,3.90
2022-12-04T22:06:54.043Z,3.90
2022-12-04T22:09:23.239Z,3.90
2022-12-04T22:11:51.092Z,3.90
2022-12-04T22:14:19.039Z,3.80
2022-12-04T22:16:46.927Z,3.90
2022-12-04T22:19:15.479Z,3.90
2022-12-04T22:21:43.301Z,3.80
2022-12-04T22:24:11.763Z,3.90
2022-12-04T22:26:41.133Z,4.00
2022-12-04T22:29:34.259Z,4.30
2022-12-04T22:31:57.153Z,4.30
2022-12-04T22:34:25.007Z,4.20
2022-12-04T22:36:52.863Z,4.00
2022-12-04T22:39:20.691Z,4.10
2022-12-04T22:41:49.908Z,4.00
2022-12-04T22:44:17.746Z,4.00
2022-12-04T22:46:45.676Z,3.90
2022-12-04T22:49:13.736Z,3.80
2022-12-04T22:51:41.578Z,3.90
2022-12-04T22:54:14.664Z,4.10
2022-12-04T22:56:43.459Z,4.00
2022-12-04T22:59:12.861Z,4.00
2022-12-04T23:01:40.754Z,4.10
2022-12-04T23:04:08.616Z,4.20
2022-12-04T23:06:36.924Z,4.10
2022-12-04T23:09:07.450Z,4.00
2022-12-04T23:11:36.340Z,3.90
2022-12-04T23:14:07.324Z,4.00
2022-12-04T23:16:38.915Z,3.90
2022-12-04T23:19:08.383Z,3.90
2022-12-04T23:21:36.640Z,3.90
2022-12-04T23:24:04.905Z,3.80
2022-12-04T23:26:34.481Z,3.80
2022-12-04T23:29:02.640Z,4.00
2022-12-04T23:31:31.346Z,4.10
2022-12-04T23:34:02.560Z,4.20
2022-12-04T23:36:30.552Z,4.30
2022-12-04T23:38:58.490Z,4.40
2022-12-04T23:41:28.284Z,4.50
2022-12-04T23:43:57.302Z,4.60
2022-12-04T23:46:27.339Z,4.50
2022-12-04T23:48:55.387Z,4.60
2022-12-04T23:51:24.618Z,4.60
2022-12-04T23:53:52.846Z,4.50
2022-12-04T23:56:22.602Z,4.40
2022-12-04T23:58:52.389Z,4.30
